Terminal Aerodrome Forecast
Issued by NWS Tampa Bay Area, FL

Home | Current Version | Previous Version | Text Only | Print | Product List | Glossary On
Versions: 1 2 3 4 5 6 7 8 9 10 11 12 13 14 15 16 17 18
359
FTUS42 KTBW 282335 AAA
TAFSRQ
TAF AMD
KSRQ 282335Z 2900/2924 28006KT P6SM FEW250
     FM290300 29004KT P6SM SCT050
     FM290800 13004KT P6SM FEW045 SCT070
     FM291400 17004KT P6SM FEW060 SCT080
     FM291800 23007KT P6SM VCTS SCT035CB
     FM292100 25008KT P6SM BKN080=

USA.gov is the U.S. government's official web portal to all federal, state and local government web resources and services.